sensor_id;sensor_type;location;lat;lon;timestamp;pressure;altitude;pressure_sealevel;temperature;humidity
61908;BME280;47864;52.526;19.672;2023-01-15T00:01:36;100011.97;;;5.98;100.00
61908;BME280;47864;52.526;19.672;2023-01-15T00:03:38;99959.94;;;5.71;100.00
61908;BME280;47864;52.526;19.672;2023-01-15T00:05:39;100006.72;;;5.98;100.00
61908;BME280;47864;52.526;19.672;2023-01-15T00:07:42;99979.41;;;5.90;100.00
61908;BME280;47864;52.526;19.672;2023-01-15T00:09:43;99978.16;;;5.94;100.00
61908;BME280;47864;52.526;19.672;2023-01-15T00:11:45;99990.25;;;6.06;100.00
61908;BME280;47864;52.526;19.672;2023-01-15T00:13:48;99989.28;;;6.07;100.00
61908;BME280;47864;52.526;19.672;2023-01-15T00:15:49;99975.28;;;6.06;100.00
61908;BME280;47864;52.526;19.672;2023-01-15T00:17:51;99956.13;;;5.95;100.00
61908;BME280;47864;52.526;19.672;2023-01-15T00:19:54;99949.63;;;5.99;100.00
61908;BME280;47864;52.526;19.672;2023-01-15T00:21:55;99908.44;;;5.79;100.00
61908;BME280;47864;52.526;19.672;2023-01-15T00:23:57;99962.25;;;6.15;100.00
61908;BME280;47864;52.526;19.672;2023-01-15T00:25:59;99968.47;;;6.14;100.00
61908;BME280;47864;52.526;19.672;2023-01-15T00:28:01;99956.16;;;6.14;100.00
61908;BME280;47864;52.526;19.672;2023-01-15T00:30:04;99931.06;;;6.00;100.00
61908;BME280;47864;52.526;19.672;2023-01-15T00:32:07;99960.16;;;6.18;100.00
61908;BME280;47864;52.526;19.672;2023-01-15T00:34:09;99941.31;;;6.13;100.00
61908;BME280;47864;52.526;19.672;2023-01-15T00:36:10;99946.59;;;6.13;100.00
61908;BME280;47864;52.526;19.672;2023-01-15T00:38:13;99927.47;;;6.11;100.00
61908;BME280;47864;52.526;19.672;2023-01-15T00:40:17;99954.22;;;6.16;100.00
61908;BME280;47864;52.526;19.672;2023-01-15T00:42:19;99910.53;;;5.94;100.00
61908;BME280;47864;52.526;19.672;2023-01-15T00:44:21;99962.25;;;6.24;100.00
61908;BME280;47864;52.526;19.672;2023-01-15T00:46:23;99915.41;;;5.99;100.00
61908;BME280;47864;52.526;19.672;2023-01-15T00:48:25;99944.78;;;6.33;100.00
61908;BME280;47864;52.526;19.672;2023-01-15T00:50:26;99931.31;;;6.26;100.00
61908;BME280;47864;52.526;19.672;2023-01-15T00:52:28;99923.72;;;6.23;100.00
61908;BME280;47864;52.526;19.672;2023-01-15T00:54:30;99924.56;;;6.14;100.00
61908;BME280;47864;52.526;19.672;2023-01-15T00:56:32;99918.19;;;6.07;100.00
61908;BME280;47864;52.526;19.672;2023-01-15T00:58:34;99936.19;;;6.21;100.00
61908;BME280;47864;52.526;19.672;2023-01-15T01:00:35;99920.25;;;6.13;100.00
61908;BME280;47864;52.526;19.672;2023-01-15T01:02:37;99908.63;;;6.16;100.00
61908;BME280;47864;52.526;19.672;2023-01-15T01:04:39;99894.06;;;6.02;100.00
61908;BME280;47864;52.526;19.672;2023-01-15T01:06:41;99874.13;;;5.99;100.00
61908;BME280;47864;52.526;19.672;2023-01-15T01:08:43;99882.44;;;6.04;100.00
61908;BME280;47864;52.526;19.672;2023-01-15T01:10:45;99860.00;;;6.00;100.00
61908;BME280;47864;52.526;19.672;2023-01-15T01:12:47;99872.16;;;6.11;100.00
61908;BME280;47864;52.526;19.672;2023-01-15T01:14:49;99834.47;;;5.82;100.00
61908;BME280;47864;52.526;19.672;2023-01-15T01:16:50;99860.53;;;5.94;100.00
61908;BME280;47864;52.526;19.672;2023-01-15T01:18:53;99844.31;;;5.80;100.00
61908;BME280;47864;52.526;19.672;2023-01-15T01:20:55;99866.50;;;5.96;100.00
61908;BME280;47864;52.526;19.672;2023-01-15T01:22:57;99854.13;;;5.87;100.00
61908;BME280;47864;52.526;19.672;2023-01-15T01:24:59;99886.72;;;6.05;100.00
61908;BME280;47864;52.526;19.672;2023-01-15T01:27:01;99827.53;;;5.61;100.00
61908;BME280;47864;52.526;19.672;2023-01-15T01:29:03;99893.94;;;6.03;100.00
61908;BME280;47864;52.526;19.672;2023-01-15T01:31:06;99869.97;;;5.97;100.00
61908;BME280;47864;52.526;19.672;2023-01-15T01:33:08;99853.06;;;5.90;100.00
61908;BME280;47864;52.526;19.672;2023-01-15T01:35:10;99868.44;;;6.04;100.00
61908;BME280;47864;52.526;19.672;2023-01-15T01:37:12;99854.44;;;5.94;100.00
61908;BME280;47864;52.526;19.672;2023-01-15T01:39:16;99877.16;;;6.04;100.00
61908;BME280;47864;52.526;19.672;2023-01-15T01:41:18;99858.06;;;5.93;100.00
61908;BME280;47864;52.526;19.672;2023-01-15T01:43:23;99849.47;;;6.00;100.00
61908;BME280;47864;52.526;19.672;2023-01-15T01:45:28;99858.34;;;5.90;100.00
61908;BME280;47864;52.526;19.672;2023-01-15T01:47:33;99852.38;;;5.88;100.00
61908;BME280;47864;52.526;19.672;2023-01-15T01:49:37;99846.16;;;5.89;100.00
61908;BME280;47864;52.526;19.672;2023-01-15T01:51:45;99842.38;;;5.82;100.00
61908;BME280;47864;52.526;19.672;2023-01-15T01:53:49;99797.50;;;5.45;100.00
61908;BME280;47864;52.526;19.672;2023-01-15T01:55:52;99836.41;;;5.70;100.00
61908;BME280;47864;52.526;19.672;2023-01-15T01:57:57;99830.63;;;5.76;100.00
61908;BME280;47864;52.526;19.672;2023-01-15T02:00:00;99792.81;;;5.48;100.00
61908;BME280;47864;52.526;19.672;2023-01-15T02:02:03;99813.28;;;5.64;100.00
61908;BME280;47864;52.526;19.672;2023-01-15T02:04:07;99803.34;;;5.67;100.00
61908;BME280;47864;52.526;19.672;2023-01-15T02:06:10;99792.81;;;5.67;100.00
61908;BME280;47864;52.526;19.672;2023-01-15T02:08:13;99781.47;;;5.67;100.00
61908;BME280;47864;52.526;19.672;2023-01-15T02:10:15;99773.44;;;5.59;100.00
61908;BME280;47864;52.526;19.672;2023-01-15T02:12:30;99760.69;;;5.54;100.00
61908;BME280;47864;52.526;19.672;2023-01-15T02:14:49;99785.44;;;5.61;100.00
61908;BME280;47864;52.526;19.672;2023-01-15T02:21:42;99775.22;;;5.49;100.00
61908;BME280;47864;52.526;19.672;2023-01-15T02:26:33;99765.53;;;5.49;100.00
61908;BME280;47864;52.526;19.672;2023-01-15T02:28:46;99789.63;;;5.54;100.00
61908;BME280;47864;52.526;19.672;2023-01-15T02:31:21;99784.34;;;5.54;100.00
61908;BME280;47864;52.526;19.672;2023-01-15T02:33:32;99787.94;;;5.53;100.00
61908;BME280;47864;52.526;19.672;2023-01-15T02:35:46;99791.28;;;5.55;100.00
61908;BME280;47864;52.526;19.672;2023-01-15T02:37:54;99794.19;;;5.62;100.00
61908;BME280;47864;52.526;19.672;2023-01-15T02:39:59;99774.78;;;5.44;100.00
61908;BME280;47864;52.526;19.672;2023-01-15T02:42:04;99766.06;;;5.53;100.00
61908;BME280;47864;52.526;19.672;2023-01-15T02:44:06;99775.34;;;5.57;100.00
61908;BME280;47864;52.526;19.672;2023-01-15T02:46:10;99771.75;;;5.48;100.00
61908;BME280;47864;52.526;19.672;2023-01-15T02:48:15;99740.63;;;5.34;100.00
61908;BME280;47864;52.526;19.672;2023-01-15T02:50:22;99746.81;;;5.52;100.00
61908;BME280;47864;52.526;19.672;2023-01-15T02:52:29;99736.47;;;5.51;100.00
61908;BME280;47864;52.526;19.672;2023-01-15T02:54:39;99737.16;;;5.43;100.00
61908;BME280;47864;52.526;19.672;2023-01-15T02:56:44;99732.72;;;5.44;100.00
61908;BME280;47864;52.526;19.672;2023-01-15T02:58:51;99702.97;;;5.24;100.00
61908;BME280;47864;52.526;19.672;2023-01-15T03:00:56;99746.81;;;5.52;100.00
61908;BME280;47864;52.526;19.672;2023-01-15T03:03:15;99763.44;;;5.53;100.00
61908;BME280;47864;52.526;19.672;2023-01-15T03:05:23;99773.00;;;5.54;100.00
61908;BME280;47864;52.526;19.672;2023-01-15T03:07:53;99745.03;;;5.62;100.00
61908;BME280;47864;52.526;19.672;2023-01-15T03:09:55;99718.06;;;5.41;100.00
61908;BME280;47864;52.526;19.672;2023-01-15T03:14:21;99740.19;;;5.58;100.00
61908;BME280;47864;52.526;19.672;2023-01-15T03:16:38;99731.22;;;5.51;100.00
61908;BME280;47864;52.526;19.672;2023-01-15T03:18:52;99734.25;;;5.56;100.00
61908;BME280;47864;52.526;19.672;2023-01-15T03:20:59;99734.09;;;5.57;100.00
61908;BME280;47864;52.526;19.672;2023-01-15T03:23:08;99718.19;;;5.49;100.00
61908;BME280;47864;52.526;19.672;2023-01-15T03:25:16;99722.31;;;5.61;100.00
61908;BME280;47864;52.526;19.672;2023-01-15T03:27:21;99715.25;;;5.52;100.00
61908;BME280;47864;52.526;19.672;2023-01-15T03:29:26;99689.97;;;5.42;100.00
61908;BME280;47864;52.526;19.672;2023-01-15T03:31:29;99701.72;;;5.57;100.00
61908;BME280;47864;52.526;19.672;2023-01-15T03:33:31;99692.41;;;5.53;100.00
61908;BME280;47864;52.526;19.672;2023-01-15T03:35:49;99695.88;;;5.53;100.00
61908;BME280;47864;52.526;19.672;2023-01-15T03:37:51;99675.28;;;5.39;100.00
61908;BME280;47864;52.526;19.672;2023-01-15T03:39:54;99651.22;;;5.34;100.00
61908;BME280;47864;52.526;19.672;2023-01-15T03:47:08;99634.88;;;5.40;100.00
61908;BME280;47864;52.526;19.672;2023-01-15T03:53:53;99631.28;;;5.31;100.00
61908;BME280;47864;52.526;19.672;2023-01-15T03:56:02;99610.28;;;5.12;100.00
61908;BME280;47864;52.526;19.672;2023-01-15T03:58:23;99639.63;;;5.27;100.00
61908;BME280;47864;52.526;19.672;2023-01-15T04:00:33;99658.16;;;5.35;100.00
61908;BME280;47864;52.526;19.672;2023-01-15T04:02:38;99652.31;;;5.31;100.00
61908;BME280;47864;52.526;19.672;2023-01-15T04:04:42;99632.69;;;5.26;100.00
61908;BME280;47864;52.526;19.672;2023-01-15T04:06:45;99616.75;;;5.27;100.00
61908;BME280;47864;52.526;19.672;2023-01-15T04:08:51;99650.09;;;5.46;100.00
61908;BME280;47864;52.526;19.672;2023-01-15T04:10:55;99653.97;;;5.42;100.00
61908;BME280;47864;52.526;19.672;2023-01-15T04:12:58;99634.63;;;5.33;100.00
61908;BME280;47864;52.526;19.672;2023-01-15T04:15:00;99585.25;;;5.08;100.00
61908;BME280;47864;52.526;19.672;2023-01-15T04:17:01;99620.75;;;5.41;100.00
61908;BME280;47864;52.526;19.672;2023-01-15T04:19:03;99630.44;;;5.50;100.00
61908;BME280;47864;52.526;19.672;2023-01-15T04:21:06;99633.59;;;5.44;100.00
61908;BME280;47864;52.526;19.672;2023-01-15T04:23:08;99642.19;;;5.46;100.00
61908;BME280;47864;52.526;19.672;2023-01-15T04:25:10;99650.06;;;5.56;100.00
61908;BME280;47864;52.526;19.672;2023-01-15T04:27:12;99644.09;;;5.54;100.00
61908;BME280;47864;52.526;19.672;2023-01-15T04:29:14;99645.25;;;5.51;100.00
61908;BME280;47864;52.526;19.672;2023-01-15T04:31:16;99616.44;;;5.50;100.00
61908;BME280;47864;52.526;19.672;2023-01-15T04:33:18;99635.09;;;5.66;100.00
61908;BME280;47864;52.526;19.672;2023-01-15T04:35:21;99599.97;;;5.48;100.00
61908;BME280;47864;52.526;19.672;2023-01-15T04:37:23;99625.16;;;5.60;100.00
61908;BME280;47864;52.526;19.672;2023-01-15T04:39:25;99624.31;;;5.59;100.00
61908;BME280;47864;52.526;19.672;2023-01-15T04:41:26;99630.09;;;5.63;100.00
61908;BME280;47864;52.526;19.672;2023-01-15T04:43:28;99629.72;;;5.58;100.00
61908;BME280;47864;52.526;19.672;2023-01-15T04:45:30;99614.06;;;5.56;100.00
61908;BME280;47864;52.526;19.672;2023-01-15T04:47:32;99606.75;;;5.50;100.00
61908;BME280;47864;52.526;19.672;2023-01-15T04:49:34;99625.91;;;5.70;100.00
61908;BME280;47864;52.526;19.672;2023-01-15T04:51:37;99620.03;;;5.58;100.00
61908;BME280;47864;52.526;19.672;2023-01-15T04:53:40;99610.16;;;5.60;100.00
61908;BME280;47864;52.526;19.672;2023-01-15T04:55:44;99594.72;;;5.48;100.00
61908;BME280;47864;52.526;19.672;2023-01-15T04:57:48;99592.78;;;5.50;100.00
61908;BME280;47864;52.526;19.672;2023-01-15T04:59:50;99594.44;;;5.51;100.00
61908;BME280;47864;52.526;19.672;2023-01-15T05:01:52;99592.63;;;5.51;100.00
61908;BME280;47864;52.526;19.672;2023-01-15T05:04:06;99574.25;;;5.42;100.00
61908;BME280;47864;52.526;19.672;2023-01-15T05:06:09;99601.19;;;5.53;100.00
61908;BME280;47864;52.526;19.672;2023-01-15T05:08:11;99564.69;;;5.41;100.00
61908;BME280;47864;52.526;19.672;2023-01-15T05:10:14;99599.16;;;5.38;100.00
61908;BME280;47864;52.526;19.672;2023-01-15T05:12:16;99588.53;;;5.29;100.00
61908;BME280;47864;52.526;19.672;2023-01-15T05:14:20;99565.56;;;5.22;100.00
61908;BME280;47864;52.526;19.672;2023-01-15T05:16:26;99587.91;;;5.55;100.00
61908;BME280;47864;52.526;19.672;2023-01-15T05:18:28;99588.34;;;5.50;100.00
61908;BME280;47864;52.526;19.672;2023-01-15T05:20:30;99556.59;;;5.24;100.00
61908;BME280;47864;52.526;19.672;2023-01-15T05:22:34;99580.88;;;5.46;100.00
61908;BME280;47864;52.526;19.672;2023-01-15T05:24:35;99554.47;;;5.28;100.00
61908;BME280;47864;52.526;19.672;2023-01-15T05:26:38;99537.22;;;5.25;100.00
61908;BME280;47864;52.526;19.672;2023-01-15T05:28:40;99554.03;;;5.42;100.00
61908;BME280;47864;52.526;19.672;2023-01-15T05:30:42;99543.53;;;5.42;100.00
61908;BME280;47864;52.526;19.672;2023-01-15T05:32:44;99541.44;;;5.36;100.00
61908;BME280;47864;52.526;19.672;2023-01-15T05:34:46;99508.31;;;5.16;100.00
61908;BME280;47864;52.526;19.672;2023-01-15T05:36:48;99506.53;;;5.16;100.00
61908;BME280;47864;52.526;19.672;2023-01-15T05:38:50;99513.25;;;5.28;100.00
61908;BME280;47864;52.526;19.672;2023-01-15T05:40:53;99493.00;;;5.02;100.00
61908;BME280;47864;52.526;19.672;2023-01-15T05:42:55;99535.44;;;5.16;100.00
61908;BME280;47864;52.526;19.672;2023-01-15T05:44:58;99513.75;;;5.05;100.00
61908;BME280;47864;52.526;19.672;2023-01-15T05:47:00;99530.59;;;5.12;100.00
61908;BME280;47864;52.526;19.672;2023-01-15T05:49:05;99531.16;;;5.06;100.00
61908;BME280;47864;52.526;19.672;2023-01-15T05:51:07;99537.69;;;5.02;100.00
61908;BME280;47864;52.526;19.672;2023-01-15T05:53:09;99538.22;;;5.05;100.00
61908;BME280;47864;52.526;19.672;2023-01-15T05:55:11;99535.91;;;5.02;100.00
61908;BME280;47864;52.526;19.672;2023-01-15T05:57:13;99514.75;;;4.94;100.00
61908;BME280;47864;52.526;19.672;2023-01-15T05:59:18;99528.13;;;5.10;100.00
61908;BME280;47864;52.526;19.672;2023-01-15T06:01:21;99517.56;;;5.20;100.00
61908;BME280;47864;52.526;19.672;2023-01-15T06:03:24;99514.91;;;5.29;100.00
61908;BME280;47864;52.526;19.672;2023-01-15T06:05:26;99516.72;;;5.19;100.00
61908;BME280;47864;52.526;19.672;2023-01-15T06:07:28;99509.44;;;5.13;100.00
61908;BME280;47864;52.526;19.672;2023-01-15T06:09:30;99487.88;;;5.10;100.00
61908;BME280;47864;52.526;19.672;2023-01-15T06:11:32;99493.53;;;5.15;100.00
61908;BME280;47864;52.526;19.672;2023-01-15T06:13:35;99505.84;;;5.14;100.00
61908;BME280;47864;52.526;19.672;2023-01-15T06:15:38;99504.28;;;5.21;100.00
61908;BME280;47864;52.526;19.672;2023-01-15T06:17:40;99488.25;;;5.15;100.00
61908;BME280;47864;52.526;19.672;2023-01-15T06:19:42;99504.81;;;5.34;100.00
61908;BME280;47864;52.526;19.672;2023-01-15T06:21:44;99500.16;;;5.19;100.00
61908;BME280;47864;52.526;19.672;2023-01-15T06:23:46;99507.44;;;5.34;100.00
61908;BME280;47864;52.526;19.672;2023-01-15T06:25:48;99479.28;;;5.17;100.00
61908;BME280;47864;52.526;19.672;2023-01-15T06:27:50;99502.41;;;5.41;100.00
61908;BME280;47864;52.526;19.672;2023-01-15T06:29:52;99497.88;;;5.33;100.00
61908;BME280;47864;52.526;19.672;2023-01-15T06:31:54;99473.81;;;5.28;100.00
61908;BME280;47864;52.526;19.672;2023-01-15T06:33:56;99494.09;;;5.46;100.00
61908;BME280;47864;52.526;19.672;2023-01-15T06:36:02;99496.44;;;5.49;100.00
61908;BME280;47864;52.526;19.672;2023-01-15T06:38:04;99476.50;;;5.46;100.00
61908;BME280;47864;52.526;19.672;2023-01-15T06:40:06;99490.53;;;5.64;100.00
61908;BME280;47864;52.526;19.672;2023-01-15T06:42:08;99492.47;;;5.62;100.00
61908;BME280;47864;52.526;19.672;2023-01-15T06:44:12;99487.44;;;5.69;100.00
61908;BME280;47864;52.526;19.672;2023-01-15T06:46:15;99491.88;;;5.68;100.00
61908;BME280;47864;52.526;19.672;2023-01-15T06:48:17;99492.66;;;5.79;100.00
61908;BME280;47864;52.526;19.672;2023-01-15T06:50:19;99491.81;;;5.88;100.00
61908;BME280;47864;52.526;19.672;2023-01-15T06:52:22;99499.44;;;5.91;100.00
61908;BME280;47864;52.526;19.672;2023-01-15T06:54:25;99466.75;;;5.84;100.00
61908;BME280;47864;52.526;19.672;2023-01-15T06:56:27;99494.53;;;5.96;100.00
61908;BME280;47864;52.526;19.672;2023-01-15T06:58:29;99477.94;;;5.86;100.00
61908;BME280;47864;52.526;19.672;2023-01-15T07:00:31;99485.66;;;5.97;100.00
61908;BME280;47864;52.526;19.672;2023-01-15T07:02:32;99484.59;;;5.90;100.00
61908;BME280;47864;52.526;19.672;2023-01-15T07:04:34;99485.38;;;6.00;100.00
61908;BME280;47864;52.526;19.672;2023-01-15T07:06:36;99480.13;;;6.00;100.00
61908;BME280;47864;52.526;19.672;2023-01-15T07:08:39;99497.84;;;5.98;100.00
61908;BME280;47864;52.526;19.672;2023-01-15T07:10:41;99454.97;;;5.88;100.00
61908;BME280;47864;52.526;19.672;2023-01-15T07:12:43;99470.25;;;6.02;100.00
61908;BME280;47864;52.526;19.672;2023-01-15T07:14:45;99462.94;;;5.96;100.00
61908;BME280;47864;52.526;19.672;2023-01-15T07:16:47;99475.84;;;6.17;100.00
61908;BME280;47864;52.526;19.672;2023-01-15T07:18:50;99463.03;;;6.04;100.00
61908;BME280;47864;52.526;19.672;2023-01-15T07:20:58;99465.88;;;6.10;100.00
61908;BME280;47864;52.526;19.672;2023-01-15T07:23:00;99479.44;;;6.16;100.00
61908;BME280;47864;52.526;19.672;2023-01-15T07:25:04;99479.13;;;6.19;100.00
61908;BME280;47864;52.526;19.672;2023-01-15T07:27:09;99469.19;;;6.13;100.00
61908;BME280;47864;52.526;19.672;2023-01-15T07:29:12;99451.00;;;6.01;100.00
61908;BME280;47864;52.526;19.672;2023-01-15T07:31:14;99460.72;;;6.01;100.00
61908;BME280;47864;52.526;19.672;2023-01-15T07:33:16;99463.91;;;5.95;100.00
61908;BME280;47864;52.526;19.672;2023-01-15T07:35:17;99456.63;;;5.89;100.00
61908;BME280;47864;52.526;19.672;2023-01-15T07:37:19;99478.41;;;6.08;100.00
61908;BME280;47864;52.526;19.672;2023-01-15T07:39:21;99485.47;;;6.08;100.00
61908;BME280;47864;52.526;19.672;2023-01-15T07:41:23;99478.75;;;6.14;100.00
61908;BME280;47864;52.526;19.672;2023-01-15T07:43:25;99448.44;;;5.92;100.00
61908;BME280;47864;52.526;19.672;2023-01-15T07:45:26;99473.50;;;6.14;100.00
61908;BME280;47864;52.526;19.672;2023-01-15T07:47:28;99445.28;;;6.06;100.00
61908;BME280;47864;52.526;19.672;2023-01-15T07:49:30;99465.44;;;6.15;100.00
61908;BME280;47864;52.526;19.672;2023-01-15T07:51:32;99445.97;;;6.08;100.00
61908;BME280;47864;52.526;19.672;2023-01-15T07:53:34;99466.88;;;6.27;100.00
61908;BME280;47864;52.526;19.672;2023-01-15T07:55:35;99467.75;;;6.36;100.00
61908;BME280;47864;52.526;19.672;2023-01-15T07:57:38;99435.50;;;6.16;100.00
61908;BME280;47864;52.526;19.672;2023-01-15T07:59:40;99464.31;;;6.35;100.00
61908;BME280;47864;52.526;19.672;2023-01-15T08:01:42;99460.53;;;6.38;100.00
61908;BME280;47864;52.526;19.672;2023-01-15T08:03:44;99440.25;;;6.30;100.00
61908;BME280;47864;52.526;19.672;2023-01-15T08:05:46;99448.50;;;6.35;100.00
61908;BME280;47864;52.526;19.672;2023-01-15T08:07:48;99412.94;;;6.14;100.00
61908;BME280;47864;52.526;19.672;2023-01-15T08:09:49;99425.28;;;6.31;100.00
61908;BME280;47864;52.526;19.672;2023-01-15T08:11:51;99432.09;;;6.41;100.00
61908;BME280;47864;52.526;19.672;2023-01-15T08:13:53;99420.50;;;6.34;100.00
61908;BME280;47864;52.526;19.672;2023-01-15T08:15:55;99434.06;;;6.39;100.00
61908;BME280;47864;52.526;19.672;2023-01-15T08:17:57;99444.50;;;6.49;100.00
61908;BME280;47864;52.526;19.672;2023-01-15T08:19:59;99425.53;;;6.45;100.00
61908;BME280;47864;52.526;19.672;2023-01-15T08:22:01;99435.94;;;6.47;100.00
61908;BME280;47864;52.526;19.672;2023-01-15T08:24:03;99402.06;;;6.34;100.00
61908;BME280;47864;52.526;19.672;2023-01-15T08:26:05;99432.22;;;6.58;100.00
61908;BME280;47864;52.526;19.672;2023-01-15T08:28:08;99428.28;;;6.62;100.00
61908;BME280;47864;52.526;19.672;2023-01-15T08:30:15;99410.13;;;6.51;100.00
61908;BME280;47864;52.526;19.672;2023-01-15T08:32:19;99418.44;;;6.64;100.00
61908;BME280;47864;52.526;19.672;2023-01-15T08:34:20;99402.38;;;6.49;100.00
61908;BME280;47864;52.526;19.672;2023-01-15T08:36:22;99418.44;;;6.64;100.00
61908;BME280;47864;52.526;19.672;2023-01-15T08:38:25;99430.16;;;6.69;100.00
61908;BME280;47864;52.526;19.672;2023-01-15T08:40:26;99411.66;;;6.61;100.00
61908;BME280;47864;52.526;19.672;2023-01-15T08:42:28;99400.22;;;6.53;100.00
61908;BME280;47864;52.526;19.672;2023-01-15T08:44:30;99415.94;;;6.62;100.00
61908;BME280;47864;52.526;19.672;2023-01-15T08:46:32;99423.75;;;6.72;100.00
61908;BME280;47864;52.526;19.672;2023-01-15T08:48:34;99435.13;;;6.72;100.00
61908;BME280;47864;52.526;19.672;2023-01-15T08:50:36;99404.53;;;6.54;100.00
61908;BME280;47864;52.526;19.672;2023-01-15T08:52:38;99408.88;;;6.63;100.00
61908;BME280;47864;52.526;19.672;2023-01-15T08:54:41;99425.91;;;6.76;100.00
61908;BME280;47864;52.526;19.672;2023-01-15T08:56:44;99414.97;;;6.63;100.00
61908;BME280;47864;52.526;19.672;2023-01-15T08:58:46;99394.63;;;6.47;100.00
61908;BME280;47864;52.526;19.672;2023-01-15T09:00:48;99415.94;;;6.62;100.00
61908;BME280;47864;52.526;19.672;2023-01-15T09:02:50;99429.66;;;6.66;100.00
61908;BME280;47864;52.526;19.672;2023-01-15T09:04:52;99421.75;;;6.66;100.00
61908;BME280;47864;52.526;19.672;2023-01-15T09:06:53;99428.34;;;6.70;100.00
61908;BME280;47864;52.526;19.672;2023-01-15T09:08:55;99434.97;;;6.74;100.00
61908;BME280;47864;52.526;19.672;2023-01-15T09:11:01;99428.41;;;6.78;100.00
61908;BME280;47864;52.526;19.672;2023-01-15T09:13:03;99432.16;;;6.75;100.00
61908;BME280;47864;52.526;19.672;2023-01-15T09:15:05;99428.03;;;6.73;100.00
61908;BME280;47864;52.526;19.672;2023-01-15T09:17:07;99420.28;;;6.71;100.00
61908;BME280;47864;52.526;19.672;2023-01-15T09:19:09;99425.81;;;6.86;100.00
61908;BME280;47864;52.526;19.672;2023-01-15T09:21:11;99415.84;;;6.72;100.00
61908;BME280;47864;52.526;19.672;2023-01-15T09:23:13;99432.84;;;6.77;100.00
61908;BME280;47864;52.526;19.672;2023-01-15T09:25:15;99407.13;;;6.71;100.00
61908;BME280;47864;52.526;19.672;2023-01-15T09:27:18;99408.56;;;6.66;100.00
61908;BME280;47864;52.526;19.672;2023-01-15T09:29:22;99422.44;;;6.76;100.00
61908;BME280;47864;52.526;19.672;2023-01-15T09:31:24;99422.50;;;6.84;100.00
61908;BME280;47864;52.526;19.672;2023-01-15T09:33:29;99411.47;;;6.80;100.00
61908;BME280;47864;52.526;19.672;2023-01-15T09:35:31;99412.13;;;6.82;100.00
61908;BME280;47864;52.526;19.672;2023-01-15T09:37:33;99400.34;;;6.69;100.00
61908;BME280;47864;52.526;19.672;2023-01-15T09:39:36;99391.16;;;6.73;100.00
61908;BME280;47864;52.526;19.672;2023-01-15T09:46:29;99361.44;;;6.63;100.00
61908;BME280;47864;52.526;19.672;2023-01-15T09:48:48;99408.53;;;6.83;100.00
61908;BME280;47864;52.526;19.672;2023-01-15T09:51:27;99384.91;;;6.74;100.00
61908;BME280;47864;52.526;19.672;2023-01-15T09:55:48;99380.09;;;6.69;100.00
61908;BME280;47864;52.526;19.672;2023-01-15T09:57:53;99400.91;;;6.80;100.00
61908;BME280;47864;52.526;19.672;2023-01-15T09:59:57;99400.38;;;6.77;100.00
61908;BME280;47864;52.526;19.672;2023-01-15T10:02:04;99361.78;;;6.68;100.00
61908;BME280;47864;52.526;19.672;2023-01-15T10:06:44;99387.63;;;6.64;100.00
61908;BME280;47864;52.526;19.672;2023-01-15T10:08:49;99399.50;;;6.68;100.00
61908;BME280;47864;52.526;19.672;2023-01-15T10:11:00;99395.44;;;6.74;100.00
61908;BME280;47864;52.526;19.672;2023-01-15T10:13:13;99401.00;;;6.71;100.00
61908;BME280;47864;52.526;19.672;2023-01-15T10:15:23;99386.34;;;6.68;100.00
61908;BME280;47864;52.526;19.672;2023-01-15T10:17:38;99386.81;;;6.64;100.00
61908;BME280;47864;52.526;19.672;2023-01-15T10:19:41;99389.75;;;6.61;100.00
61908;BME280;47864;52.526;19.672;2023-01-15T10:24:17;99377.16;;;6.72;100.00
61908;BME280;47864;52.526;19.672;2023-01-15T10:28:52;99377.94;;;6.65;100.00
61908;BME280;47864;52.526;19.672;2023-01-15T10:31:10;99373.63;;;6.64;100.00
61908;BME280;47864;52.526;19.672;2023-01-15T10:33:29;99374.47;;;6.64;100.00
61908;BME280;47864;52.526;19.672;2023-01-15T10:37:46;99349.34;;;6.52;100.00
61908;BME280;47864;52.526;19.672;2023-01-15T10:40:14;99370.47;;;6.60;100.00
61908;BME280;47864;52.526;19.672;2023-01-15T10:44:45;99383.50;;;6.62;100.00
61908;BME280;47864;52.526;19.672;2023-01-15T10:46:55;99345.78;;;6.35;100.00
61908;BME280;47864;52.526;19.672;2023-01-15T10:49:03;99363.94;;;6.38;100.00
61908;BME280;47864;52.526;19.672;2023-01-15T10:51:27;99357.16;;;6.36;100.00
61908;BME280;47864;52.526;19.672;2023-01-15T10:53:41;99368.91;;;6.41;100.00
61908;BME280;47864;52.526;19.672;2023-01-15T10:55:46;99369.25;;;6.46;100.00
61908;BME280;47864;52.526;19.672;2023-01-15T10:58:11;99337.63;;;6.21;100.00
61908;BME280;47864;52.526;19.672;2023-01-15T11:00:15;99368.06;;;6.41;100.00
61908;BME280;47864;52.526;19.672;2023-01-15T11:04:34;99363.66;;;6.24;100.00
61908;BME280;47864;52.526;19.672;2023-01-15T11:06:37;99322.41;;;6.06;100.00
61908;BME280;47864;52.526;19.672;2023-01-15T11:08:41;99339.28;;;6.22;100.00
61908;BME280;47864;52.526;19.672;2023-01-15T11:13:35;99330.91;;;6.00;100.00
61908;BME280;47864;52.526;19.672;2023-01-15T11:15:37;99371.25;;;6.27;100.00
61908;BME280;47864;52.526;19.672;2023-01-15T11:17:42;99345.16;;;6.16;100.00
61908;BME280;47864;52.526;19.672;2023-01-15T11:19:45;99367.34;;;6.31;100.00
61908;BME280;47864;52.526;19.672;2023-01-15T11:21:47;99352.38;;;6.14;100.00
61908;BME280;47864;52.526;19.672;2023-01-15T11:23:51;99341.25;;;6.02;100.00
61908;BME280;47864;52.526;19.672;2023-01-15T11:25:58;99369.50;;;6.35;100.00
61908;BME280;47864;52.526;19.672;2023-01-15T11:28:05;99371.81;;;6.38;100.00
61908;BME280;47864;52.526;19.672;2023-01-15T11:30:33;99365.06;;;6.36;100.00
61908;BME280;47864;52.526;19.672;2023-01-15T11:32:37;99360.16;;;6.41;100.00
61908;BME280;47864;52.526;19.672;2023-01-15T11:34:39;99349.72;;;6.31;100.00